UATG/GUW METAR and TAF weather

Enter ICAO airport designator
Station Type Date Time Source
UATG METAR 2019/06/18 04:30 UTC NOAA

UATG 180430Z 14005MPS CAVOK 28/08 Q1012 R14/CLRD70 NOSIG RMK QFE761/1015


Station Type Date Time Source
UATG Decoded METAR 2019/06/18 04:30 UTC NOAA

Station name not available
Jun 18, 2019 - 12:30 AM EDT / 2019.06.18 0430 UTC
Wind: from the SE (140 degrees) at 11 MPH (10 KT):0
Visibility: greater than 7 mile(s):0
Temperature: 82 F (28 C)
Dew Point: 46 F (8 C)
Relative Humidity: 28%
Pressure (altimeter): 29.88 in. Hg (1012 hPa)
ob: UATG 180430Z 14005MPS CAVOK 28/08 Q1012 R14/CLRD70 NOSIG RMK QFE761/1015
cycle: 4

Station Type Date Time Source
UATG TAF 2019/06/17 18:18 UTC NOAA

TAF UATG 171701Z 1718/1818 VRB03MPS 9999 SCT033 TX33/1811Z TN19/1801Z

Example: see airport list